sensor_id;sensor_type;location;lat;lon;timestamp;pressure;altitude;pressure_sealevel;temperature;humidity
29467;BME280;60968;37.490;-122.288;2023-08-06T00:01:05;98698.56;;;26.39;44.19
29467;BME280;60968;37.490;-122.288;2023-08-06T00:04:06;98694.41;;;26.25;44.28
29467;BME280;60968;37.490;-122.288;2023-08-06T00:07:07;98686.56;;;26.12;45.18
29467;BME280;60968;37.490;-122.288;2023-08-06T00:10:08;98687.94;;;26.07;45.32
29467;BME280;60968;37.490;-122.288;2023-08-06T00:13:11;98692.41;;;25.95;45.20
29467;BME280;60968;37.490;-122.288;2023-08-06T00:16:12;98681.03;;;25.93;45.48
29467;BME280;60968;37.490;-122.288;2023-08-06T00:19:13;98691.44;;;25.63;46.06
29467;BME280;60968;37.490;-122.288;2023-08-06T00:22:15;98685.28;;;25.63;46.09
29467;BME280;60968;37.490;-122.288;2023-08-06T00:25:19;98678.53;;;25.47;46.91
29467;BME280;60968;37.490;-122.288;2023-08-06T00:28:20;98676.47;;;25.40;47.01
29467;BME280;60968;37.490;-122.288;2023-08-06T00:31:21;98680.94;;;25.50;46.85
29467;BME280;60968;37.490;-122.288;2023-08-06T00:34:23;98675.31;;;25.65;46.08
29467;BME280;60968;37.490;-122.288;2023-08-06T00:37:24;98665.78;;;25.40;47.06
29467;BME280;60968;37.490;-122.288;2023-08-06T00:40:25;98674.66;;;25.17;47.63
29467;BME280;60968;37.490;-122.288;2023-08-06T00:43:27;98671.28;;;24.81;48.16
29467;BME280;60968;37.490;-122.288;2023-08-06T00:46:28;98664.31;;;24.56;49.04
29467;BME280;60968;37.490;-122.288;2023-08-06T00:49:29;98674.50;;;24.15;49.69
29467;BME280;60968;37.490;-122.288;2023-08-06T00:52:30;98670.59;;;23.97;49.98
29467;BME280;60968;37.490;-122.288;2023-08-06T00:55:33;98671.31;;;23.99;49.88
29467;BME280;60968;37.490;-122.288;2023-08-06T00:58:36;98667.22;;;23.82;50.44
29467;BME280;60968;37.490;-122.288;2023-08-06T01:01:37;98661.06;;;23.81;49.96
29467;BME280;60968;37.490;-122.288;2023-08-06T01:04:38;98654.34;;;23.89;49.91
29467;BME280;60968;37.490;-122.288;2023-08-06T01:08:11;98664.06;;;24.01;49.45
29467;BME280;60968;37.490;-122.288;2023-08-06T01:11:31;98658.16;;;24.09;49.29
29467;BME280;60968;37.490;-122.288;2023-08-06T01:15:04;98642.78;;;24.01;49.58
29467;BME280;60968;37.490;-122.288;2023-08-06T01:18:10;98637.13;;;24.17;48.96
29467;BME280;60968;37.490;-122.288;2023-08-06T01:21:15;98633.66;;;24.28;48.45
29467;BME280;60968;37.490;-122.288;2023-08-06T01:24:16;98636.78;;;24.22;48.56
29467;BME280;60968;37.490;-122.288;2023-08-06T01:27:20;98638.19;;;23.79;49.53
29467;BME280;60968;37.490;-122.288;2023-08-06T01:30:30;98636.50;;;23.54;50.03
29467;BME280;60968;37.490;-122.288;2023-08-06T01:33:34;98624.09;;;23.04;51.10
29467;BME280;60968;37.490;-122.288;2023-08-06T01:36:39;98628.81;;;22.75;52.33
29467;BME280;60968;37.490;-122.288;2023-08-06T01:39:43;98627.78;;;22.39;53.07
29467;BME280;60968;37.490;-122.288;2023-08-06T01:42:43;98633.16;;;22.24;53.68
29467;BME280;60968;37.490;-122.288;2023-08-06T01:45:45;98635.06;;;22.09;54.22
29467;BME280;60968;37.490;-122.288;2023-08-06T01:48:47;98638.72;;;21.54;56.10
29467;BME280;60968;37.490;-122.288;2023-08-06T01:51:50;98644.63;;;21.30;57.19
29467;BME280;60968;37.490;-122.288;2023-08-06T01:54:51;98652.81;;;20.98;58.83
29467;BME280;60968;37.490;-122.288;2023-08-06T01:57:52;98638.28;;;20.77;59.86
29467;BME280;60968;37.490;-122.288;2023-08-06T02:00:53;98641.28;;;20.85;59.66
29467;BME280;60968;37.490;-122.288;2023-08-06T02:03:54;98636.25;;;20.51;60.72
29467;BME280;60968;37.490;-122.288;2023-08-06T02:06:55;98639.09;;;20.48;61.26
29467;BME280;60968;37.490;-122.288;2023-08-06T02:09:57;98651.00;;;20.41;61.90
29467;BME280;60968;37.490;-122.288;2023-08-06T02:12:59;98644.44;;;19.87;64.00
29467;BME280;60968;37.490;-122.288;2023-08-06T02:16:01;98646.31;;;19.69;64.80
29467;BME280;60968;37.490;-122.288;2023-08-06T02:19:02;98648.03;;;19.70;65.16
29467;BME280;60968;37.490;-122.288;2023-08-06T02:22:05;98649.75;;;19.56;65.63
29467;BME280;60968;37.490;-122.288;2023-08-06T02:25:06;98643.44;;;19.58;65.32
29467;BME280;60968;37.490;-122.288;2023-08-06T02:28:07;98646.25;;;19.71;64.96
29467;BME280;60968;37.490;-122.288;2023-08-06T02:31:09;98653.97;;;19.74;64.39
29467;BME280;60968;37.490;-122.288;2023-08-06T02:34:10;98659.63;;;19.84;63.45
29467;BME280;60968;37.490;-122.288;2023-08-06T02:37:12;98658.69;;;19.85;63.62
29467;BME280;60968;37.490;-122.288;2023-08-06T02:40:13;98657.09;;;19.50;64.89
29467;BME280;60968;37.490;-122.288;2023-08-06T02:43:19;98656.41;;;19.47;65.95
29467;BME280;60968;37.490;-122.288;2023-08-06T02:46:20;98652.00;;;19.31;66.65
29467;BME280;60968;37.490;-122.288;2023-08-06T02:49:21;98656.41;;;19.31;66.58
29467;BME280;60968;37.490;-122.288;2023-08-06T02:52:25;98660.41;;;19.06;68.28
29467;BME280;60968;37.490;-122.288;2023-08-06T02:55:27;98658.78;;;19.19;67.79
29467;BME280;60968;37.490;-122.288;2023-08-06T02:58:29;98667.25;;;19.10;68.26
29467;BME280;60968;37.490;-122.288;2023-08-06T03:01:30;98673.72;;;19.05;68.51
29467;BME280;60968;37.490;-122.288;2023-08-06T03:04:35;98674.09;;;18.97;68.62
29467;BME280;60968;37.490;-122.288;2023-08-06T03:07:37;98672.56;;;18.93;68.13
29467;BME280;60968;37.490;-122.288;2023-08-06T03:10:38;98682.63;;;19.02;67.58
29467;BME280;60968;37.490;-122.288;2023-08-06T03:13:39;98693.72;;;19.09;66.96
29467;BME280;60968;37.490;-122.288;2023-08-06T03:16:41;98694.22;;;19.15;67.01
29467;BME280;60968;37.490;-122.288;2023-08-06T03:19:42;98691.53;;;19.17;66.21
29467;BME280;60968;37.490;-122.288;2023-08-06T03:22:42;98685.72;;;19.26;65.95
29467;BME280;60968;37.490;-122.288;2023-08-06T03:25:44;98694.78;;;19.38;65.03
29467;BME280;60968;37.490;-122.288;2023-08-06T03:28:45;98696.13;;;19.45;64.38
29467;BME280;60968;37.490;-122.288;2023-08-06T03:31:47;98701.91;;;19.52;64.06
29467;BME280;60968;37.490;-122.288;2023-08-06T03:34:48;98698.00;;;19.59;64.08
29467;BME280;60968;37.490;-122.288;2023-08-06T03:37:50;98705.50;;;19.51;64.88
29467;BME280;60968;37.490;-122.288;2023-08-06T03:40:52;98714.88;;;19.41;65.78
29467;BME280;60968;37.490;-122.288;2023-08-06T03:43:53;98720.22;;;19.23;67.06
29467;BME280;60968;37.490;-122.288;2023-08-06T03:46:53;98724.19;;;18.98;68.50
29467;BME280;60968;37.490;-122.288;2023-08-06T03:49:54;98725.44;;;18.91;68.76
29467;BME280;60968;37.490;-122.288;2023-08-06T03:52:55;98732.28;;;18.95;68.13
29467;BME280;60968;37.490;-122.288;2023-08-06T03:55:56;98735.84;;;18.94;68.06
29467;BME280;60968;37.490;-122.288;2023-08-06T03:58:57;98740.63;;;19.03;67.77
29467;BME280;60968;37.490;-122.288;2023-08-06T04:01:59;98732.38;;;19.10;67.48
29467;BME280;60968;37.490;-122.288;2023-08-06T04:05:01;98748.03;;;18.97;67.82
29467;BME280;60968;37.490;-122.288;2023-08-06T04:08:03;98750.22;;;18.89;68.25
29467;BME280;60968;37.490;-122.288;2023-08-06T04:11:07;98753.91;;;18.84;68.48
29467;BME280;60968;37.490;-122.288;2023-08-06T04:14:08;98754.00;;;18.83;68.83
29467;BME280;60968;37.490;-122.288;2023-08-06T04:17:10;98756.53;;;18.51;70.86
29467;BME280;60968;37.490;-122.288;2023-08-06T04:20:10;98750.38;;;18.50;70.96
29467;BME280;60968;37.490;-122.288;2023-08-06T04:23:12;98760.72;;;18.55;70.54
29467;BME280;60968;37.490;-122.288;2023-08-06T04:26:13;98757.63;;;18.47;71.02
29467;BME280;60968;37.490;-122.288;2023-08-06T04:29:16;98759.63;;;18.42;71.65
29467;BME280;60968;37.490;-122.288;2023-08-06T04:32:16;98767.91;;;18.51;70.82
29467;BME280;60968;37.490;-122.288;2023-08-06T04:35:17;98761.41;;;18.59;70.23
29467;BME280;60968;37.490;-122.288;2023-08-06T04:38:23;98763.41;;;18.71;69.70
29467;BME280;60968;37.490;-122.288;2023-08-06T04:41:24;98762.88;;;18.82;69.09
29467;BME280;60968;37.490;-122.288;2023-08-06T04:44:26;98764.13;;;18.92;68.56
29467;BME280;60968;37.490;-122.288;2023-08-06T04:47:29;98777.59;;;19.03;68.22
29467;BME280;60968;37.490;-122.288;2023-08-06T04:50:36;98771.63;;;19.00;68.07
29467;BME280;60968;37.490;-122.288;2023-08-06T04:53:42;98778.78;;;18.80;69.10
29467;BME280;60968;37.490;-122.288;2023-08-06T04:56:43;98783.91;;;18.66;69.94
29467;BME280;60968;37.490;-122.288;2023-08-06T04:59:44;98780.94;;;18.55;70.69
29467;BME280;60968;37.490;-122.288;2023-08-06T05:02:45;98784.13;;;18.61;70.53
29467;BME280;60968;37.490;-122.288;2023-08-06T05:05:46;98783.03;;;18.48;71.21
29467;BME280;60968;37.490;-122.288;2023-08-06T05:08:48;98775.06;;;18.32;72.29
29467;BME280;60968;37.490;-122.288;2023-08-06T05:11:49;98775.69;;;18.37;72.08
29467;BME280;60968;37.490;-122.288;2023-08-06T05:14:50;98782.13;;;18.31;72.62
29467;BME280;60968;37.490;-122.288;2023-08-06T05:17:51;98778.22;;;18.21;74.12
29467;BME280;60968;37.490;-122.288;2023-08-06T05:20:52;98778.69;;;18.12;76.62
29467;BME280;60968;37.490;-122.288;2023-08-06T05:23:53;98778.13;;;18.05;79.35
29467;BME280;60968;37.490;-122.288;2023-08-06T05:26:55;98779.19;;;18.01;80.82
29467;BME280;60968;37.490;-122.288;2023-08-06T05:29:56;98765.94;;;18.03;80.78
29467;BME280;60968;37.490;-122.288;2023-08-06T05:32:57;98775.47;;;18.05;81.19
29467;BME280;60968;37.490;-122.288;2023-08-06T05:35:59;98772.28;;;17.98;82.38
29467;BME280;60968;37.490;-122.288;2023-08-06T05:39:01;98769.78;;;17.95;84.87
29467;BME280;60968;37.490;-122.288;2023-08-06T05:42:06;98773.16;;;17.99;85.39
29467;BME280;60968;37.490;-122.288;2023-08-06T05:45:07;98770.69;;;18.13;84.47
29467;BME280;60968;37.490;-122.288;2023-08-06T05:48:08;98774.31;;;18.11;84.76
29467;BME280;60968;37.490;-122.288;2023-08-06T05:51:09;98767.97;;;17.97;85.74
29467;BME280;60968;37.490;-122.288;2023-08-06T05:54:15;98761.66;;;17.81;87.47
29467;BME280;60968;37.490;-122.288;2023-08-06T05:57:17;98772.50;;;17.75;88.84
29467;BME280;60968;37.490;-122.288;2023-08-06T06:00:18;98776.84;;;17.76;89.62
29467;BME280;60968;37.490;-122.288;2023-08-06T06:03:19;98774.13;;;17.77;89.99
29467;BME280;60968;37.490;-122.288;2023-08-06T06:06:20;98773.78;;;17.66;89.67
29467;BME280;60968;37.490;-122.288;2023-08-06T06:09:21;98777.78;;;17.56;90.91
29467;BME280;60968;37.490;-122.288;2023-08-06T06:12:22;98773.06;;;17.43;92.80
29467;BME280;60968;37.490;-122.288;2023-08-06T06:15:23;98765.53;;;17.36;94.45
29467;BME280;60968;37.490;-122.288;2023-08-06T06:18:24;98762.53;;;17.24;95.18
29467;BME280;60968;37.490;-122.288;2023-08-06T06:21:24;98769.78;;;17.19;96.35
29467;BME280;60968;37.490;-122.288;2023-08-06T06:24:25;98771.75;;;17.14;96.18
29467;BME280;60968;37.490;-122.288;2023-08-06T06:27:26;98770.34;;;17.07;97.36
29467;BME280;60968;37.490;-122.288;2023-08-06T06:30:28;98772.53;;;16.97;99.19
29467;BME280;60968;37.490;-122.288;2023-08-06T06:33:29;98760.63;;;16.88;100.00
29467;BME280;60968;37.490;-122.288;2023-08-06T06:36:33;98765.53;;;16.96;99.53
29467;BME280;60968;37.490;-122.288;2023-08-06T06:39:34;98767.78;;;17.05;98.72
29467;BME280;60968;37.490;-122.288;2023-08-06T06:42:35;98769.03;;;16.96;99.54
29467;BME280;60968;37.490;-122.288;2023-08-06T06:45:37;98769.94;;;16.75;100.00
29467;BME280;60968;37.490;-122.288;2023-08-06T06:48:42;98765.00;;;16.67;100.00
29467;BME280;60968;37.490;-122.288;2023-08-06T06:51:43;98774.94;;;16.60;100.00
29467;BME280;60968;37.490;-122.288;2023-08-06T06:54:45;98769.94;;;16.54;100.00
29467;BME280;60968;37.490;-122.288;2023-08-06T06:57:47;98765.59;;;16.53;100.00
29467;BME280;60968;37.490;-122.288;2023-08-06T07:00:49;98767.19;;;16.57;100.00
29467;BME280;60968;37.490;-122.288;2023-08-06T07:03:51;98769.47;;;16.65;100.00
29467;BME280;60968;37.490;-122.288;2023-08-06T07:06:51;98766.91;;;16.63;100.00
29467;BME280;60968;37.490;-122.288;2023-08-06T07:09:52;98756.53;;;16.60;100.00
29467;BME280;60968;37.490;-122.288;2023-08-06T07:12:53;98761.78;;;16.60;100.00
29467;BME280;60968;37.490;-122.288;2023-08-06T07:15:55;98752.72;;;16.47;100.00
29467;BME280;60968;37.490;-122.288;2023-08-06T07:18:56;98759.88;;;16.43;100.00
29467;BME280;60968;37.490;-122.288;2023-08-06T07:21:57;98762.44;;;16.45;100.00
29467;BME280;60968;37.490;-122.288;2023-08-06T07:24:57;98757.84;;;16.50;100.00
29467;BME280;60968;37.490;-122.288;2023-08-06T07:27:58;98764.28;;;16.43;100.00
29467;BME280;60968;37.490;-122.288;2023-08-06T07:31:02;98767.63;;;16.46;100.00
29467;BME280;60968;37.490;-122.288;2023-08-06T07:34:03;98776.31;;;16.49;100.00
29467;BME280;60968;37.490;-122.288;2023-08-06T07:37:05;98773.63;;;16.50;100.00
29467;BME280;60968;37.490;-122.288;2023-08-06T07:40:06;98776.75;;;16.38;100.00
29467;BME280;60968;37.490;-122.288;2023-08-06T07:43:07;98774.41;;;16.32;100.00
29467;BME280;60968;37.490;-122.288;2023-08-06T07:46:08;98771.78;;;16.32;100.00
29467;BME280;60968;37.490;-122.288;2023-08-06T07:49:09;98772.34;;;16.38;100.00
29467;BME280;60968;37.490;-122.288;2023-08-06T07:52:10;98768.03;;;16.37;100.00
29467;BME280;60968;37.490;-122.288;2023-08-06T07:55:11;98761.50;;;16.25;100.00
29467;BME280;60968;37.490;-122.288;2023-08-06T07:58:15;98766.22;;;16.17;100.00
29467;BME280;60968;37.490;-122.288;2023-08-06T08:01:16;98768.72;;;16.20;100.00
29467;BME280;60968;37.490;-122.288;2023-08-06T08:04:16;98763.34;;;16.01;100.00
29467;BME280;60968;37.490;-122.288;2023-08-06T08:07:18;98759.75;;;16.04;100.00
29467;BME280;60968;37.490;-122.288;2023-08-06T08:10:20;98765.16;;;16.21;100.00
29467;BME280;60968;37.490;-122.288;2023-08-06T08:13:21;98767.44;;;16.08;100.00
29467;BME280;60968;37.490;-122.288;2023-08-06T08:16:22;98766.28;;;16.16;100.00
29467;BME280;60968;37.490;-122.288;2023-08-06T08:19:23;98766.34;;;16.14;100.00
29467;BME280;60968;37.490;-122.288;2023-08-06T08:22:24;98751.19;;;15.99;100.00
29467;BME280;60968;37.490;-122.288;2023-08-06T08:25:25;98744.66;;;15.87;100.00
29467;BME280;60968;37.490;-122.288;2023-08-06T08:28:26;98752.94;;;15.76;100.00
29467;BME280;60968;37.490;-122.288;2023-08-06T08:31:27;98746.72;;;15.78;100.00
29467;BME280;60968;37.490;-122.288;2023-08-06T08:34:28;98749.94;;;15.87;100.00
29467;BME280;60968;37.490;-122.288;2023-08-06T08:37:29;98748.41;;;15.81;100.00
29467;BME280;60968;37.490;-122.288;2023-08-06T08:40:33;98738.53;;;15.64;100.00
29467;BME280;60968;37.490;-122.288;2023-08-06T08:43:36;98736.94;;;15.60;100.00
29467;BME280;60968;37.490;-122.288;2023-08-06T08:46:40;98734.19;;;15.63;100.00
29467;BME280;60968;37.490;-122.288;2023-08-06T08:49:42;98725.56;;;15.59;100.00
29467;BME280;60968;37.490;-122.288;2023-08-06T08:52:43;98725.69;;;15.56;100.00
29467;BME280;60968;37.490;-122.288;2023-08-06T08:55:47;98721.13;;;15.61;100.00
29467;BME280;60968;37.490;-122.288;2023-08-06T08:58:48;98725.69;;;15.56;100.00
29467;BME280;60968;37.490;-122.288;2023-08-06T09:01:49;98719.53;;;15.57;100.00
29467;BME280;60968;37.490;-122.288;2023-08-06T09:04:51;98723.00;;;15.58;100.00
29467;BME280;60968;37.490;-122.288;2023-08-06T09:07:53;98726.66;;;15.54;100.00
29467;BME280;60968;37.490;-122.288;2023-08-06T09:10:55;98726.31;;;15.63;100.00
29467;BME280;60968;37.490;-122.288;2023-08-06T09:13:57;98723.75;;;15.61;100.00
29467;BME280;60968;37.490;-122.288;2023-08-06T09:16:58;98726.59;;;15.55;100.00
29467;BME280;60968;37.490;-122.288;2023-08-06T09:19:59;98721.41;;;15.54;100.00
29467;BME280;60968;37.490;-122.288;2023-08-06T09:23:10;98720.25;;;15.61;100.00
29467;BME280;60968;37.490;-122.288;2023-08-06T09:26:13;98718.72;;;15.55;100.00
29467;BME280;60968;37.490;-122.288;2023-08-06T09:29:14;98719.66;;;15.54;100.00
29467;BME280;60968;37.490;-122.288;2023-08-06T09:32:15;98710.75;;;15.58;100.00
29467;BME280;60968;37.490;-122.288;2023-08-06T09:35:21;98707.06;;;15.63;100.00
29467;BME280;60968;37.490;-122.288;2023-08-06T09:38:25;98708.75;;;15.64;100.00
29467;BME280;60968;37.490;-122.288;2023-08-06T09:41:29;98719.34;;;15.62;100.00
29467;BME280;60968;37.490;-122.288;2023-08-06T09:44:31;98718.91;;;15.73;100.00
29467;BME280;60968;37.490;-122.288;2023-08-06T09:47:32;98718.84;;;15.74;100.00
29467;BME280;60968;37.490;-122.288;2023-08-06T09:50:35;98715.97;;;15.82;100.00
29467;BME280;60968;37.490;-122.288;2023-08-06T09:53:37;98722.22;;;15.78;100.00
29467;BME280;60968;37.490;-122.288;2023-08-06T09:56:40;98728.75;;;15.68;100.00
29467;BME280;60968;37.490;-122.288;2023-08-06T09:59:42;98728.13;;;15.61;100.00
29467;BME280;60968;37.490;-122.288;2023-08-06T10:05:46;98728.03;;;15.64;100.00
29467;BME280;60968;37.490;-122.288;2023-08-06T10:08:47;98735.59;;;15.72;100.00
29467;BME280;60968;37.490;-122.288;2023-08-06T10:11:50;98731.50;;;15.65;100.00
29467;BME280;60968;37.490;-122.288;2023-08-06T10:14:54;98714.97;;;15.63;100.00
29467;BME280;60968;37.490;-122.288;2023-08-06T10:17:58;98720.25;;;15.61;100.00
29467;BME280;60968;37.490;-122.288;2023-08-06T10:21:00;98716.91;;;15.57;100.00
29467;BME280;60968;37.490;-122.288;2023-08-06T10:24:02;98711.03;;;15.51;100.00
29467;BME280;60968;37.490;-122.288;2023-08-06T10:27:03;98718.97;;;15.49;100.00
29467;BME280;60968;37.490;-122.288;2023-08-06T10:30:30;98717.25;;;15.48;100.00
29467;BME280;60968;37.490;-122.288;2023-08-06T10:33:47;98717.16;;;15.51;100.00
29467;BME280;60968;37.490;-122.288;2023-08-06T10:36:48;98723.13;;;15.55;100.00
29467;BME280;60968;37.490;-122.288;2023-08-06T10:39:53;98732.66;;;15.57;100.00
29467;BME280;60968;37.490;-122.288;2023-08-06T10:42:53;98715.00;;;15.61;100.00
29467;BME280;60968;37.490;-122.288;2023-08-06T10:45:55;98720.22;;;15.63;100.00
29467;BME280;60968;37.490;-122.288;2023-08-06T10:48:56;98713.25;;;15.61;100.00
29467;BME280;60968;37.490;-122.288;2023-08-06T10:51:57;98715.94;;;15.60;100.00
29467;BME280;60968;37.490;-122.288;2023-08-06T10:54:58;98704.69;;;15.56;100.00
29467;BME280;60968;37.490;-122.288;2023-08-06T10:57:58;98707.31;;;15.56;100.00
29467;BME280;60968;37.490;-122.288;2023-08-06T11:01:00;98696.03;;;15.54;100.00
29467;BME280;60968;37.490;-122.288;2023-08-06T11:04:02;98708.97;;;15.59;100.00
29467;BME280;60968;37.490;-122.288;2023-08-06T11:07:03;98706.19;;;15.62;100.00
29467;BME280;60968;37.490;-122.288;2023-08-06T11:10:05;98705.09;;;15.68;100.00
29467;BME280;60968;37.490;-122.288;2023-08-06T11:13:07;98706.63;;;15.73;100.00
29467;BME280;60968;37.490;-122.288;2023-08-06T11:16:09;98709.13;;;15.76;100.00
29467;BME280;60968;37.490;-122.288;2023-08-06T11:19:10;98704.97;;;15.71;100.00
29467;BME280;60968;37.490;-122.288;2023-08-06T11:22:11;98702.59;;;15.65;100.00
29467;BME280;60968;37.490;-122.288;2023-08-06T11:25:12;98700.31;;;15.57;100.00
29467;BME280;60968;37.490;-122.288;2023-08-06T11:28:14;98697.84;;;15.52;100.00
29467;BME280;60968;37.490;-122.288;2023-08-06T11:31:22;98704.06;;;15.50;100.00
29467;BME280;60968;37.490;-122.288;2023-08-06T11:34:23;98699.84;;;15.46;100.00
29467;BME280;60968;37.490;-122.288;2023-08-06T11:37:24;98700.84;;;15.43;100.00
29467;BME280;60968;37.490;-122.288;2023-08-06T11:40:25;98696.44;;;15.43;100.00
29467;BME280;60968;37.490;-122.288;2023-08-06T11:43:26;98695.66;;;15.41;100.00
29467;BME280;60968;37.490;-122.288;2023-08-06T11:46:27;98697.19;;;15.47;100.00
29467;BME280;60968;37.490;-122.288;2023-08-06T11:49:38;98693.34;;;15.56;100.00
29467;BME280;60968;37.490;-122.288;2023-08-06T11:52:39;98695.03;;;15.57;100.00
29467;BME280;60968;37.490;-122.288;2023-08-06T11:55:40;98698.16;;;15.44;100.00
29467;BME280;60968;37.490;-122.288;2023-08-06T11:58:42;98705.41;;;15.38;100.00
29467;BME280;60968;37.490;-122.288;2023-08-06T12:01:44;98704.72;;;15.33;100.00
29467;BME280;60968;37.490;-122.288;2023-08-06T12:05:12;98709.19;;;15.31;100.00
29467;BME280;60968;37.490;-122.288;2023-08-06T12:08:13;98704.84;;;15.30;100.00
29467;BME280;60968;37.490;-122.288;2023-08-06T12:11:14;98712.59;;;15.33;100.00
29467;BME280;60968;37.490;-122.288;2023-08-06T12:14:15;98720.53;;;15.31;100.00
29467;BME280;60968;37.490;-122.288;2023-08-06T12:17:16;98723.16;;;15.31;100.00
29467;BME280;60968;37.490;-122.288;2023-08-06T12:20:17;98724.03;;;15.32;100.00
29467;BME280;60968;37.490;-122.288;2023-08-06T12:23:18;98730.88;;;15.36;100.00
29467;BME280;60968;37.490;-122.288;2023-08-06T12:26:18;98732.88;;;15.29;100.00
29467;BME280;60968;37.490;-122.288;2023-08-06T12:29:19;98737.47;;;15.22;100.00
29467;BME280;60968;37.490;-122.288;2023-08-06T12:32:20;98734.91;;;15.21;100.00
29467;BME280;60968;37.490;-122.288;2023-08-06T12:35:21;98733.06;;;15.23;100.00
29467;BME280;60968;37.490;-122.288;2023-08-06T12:38:22;98733.13;;;15.21;100.00
29467;BME280;60968;37.490;-122.288;2023-08-06T12:41:22;98734.06;;;15.20;100.00
29467;BME280;60968;37.490;-122.288;2023-08-06T12:44:24;98730.97;;;15.09;100.00
29467;BME280;60968;37.490;-122.288;2023-08-06T12:47:25;98738.84;;;15.09;100.00
29467;BME280;60968;37.490;-122.288;2023-08-06T12:50:25;98739.53;;;15.14;100.00
29467;BME280;60968;37.490;-122.288;2023-08-06T12:53:27;98733.94;;;15.23;100.00
29467;BME280;60968;37.490;-122.288;2023-08-06T12:56:28;98746.03;;;15.27;100.00
29467;BME280;60968;37.490;-122.288;2023-08-06T12:59:29;98744.56;;;15.20;100.00
29467;BME280;60968;37.490;-122.288;2023-08-06T13:02:30;98751.06;;;15.10;100.00
29467;BME280;60968;37.490;-122.288;2023-08-06T13:05:31;98751.22;;;15.05;100.00
29467;BME280;60968;37.490;-122.288;2023-08-06T13:08:31;98746.16;;;15.01;100.00
29467;BME280;60968;37.490;-122.288;2023-08-06T13:11:32;98755.63;;;15.05;100.00
29467;BME280;60968;37.490;-122.288;2023-08-06T13:14:33;98754.75;;;15.04;100.00
29467;BME280;60968;37.490;-122.288;2023-08-06T13:17:34;98758.13;;;15.08;100.00
29467;BME280;60968;37.490;-122.288;2023-08-06T13:20:38;98755.66;;;15.27;100.00
29467;BME280;60968;37.490;-122.288;2023-08-06T13:23:39;98759.75;;;15.36;100.00
29467;BME280;60968;37.490;-122.288;2023-08-06T13:26:40;98758.03;;;15.35;100.00
29467;BME280;60968;37.490;-122.288;2023-08-06T13:29:41;98756.31;;;15.34;100.00
29467;BME280;60968;37.490;-122.288;2023-08-06T13:32:42;98764.88;;;15.39;100.00
29467;BME280;60968;37.490;-122.288;2023-08-06T13:35:43;98764.00;;;15.38;100.00
29467;BME280;60968;37.490;-122.288;2023-08-06T13:38:43;98767.19;;;15.47;100.00
29467;BME280;60968;37.490;-122.288;2023-08-06T13:41:44;98761.81;;;15.50;100.00
29467;BME280;60968;37.490;-122.288;2023-08-06T13:44:45;98769.81;;;15.47;100.00
29467;BME280;60968;37.490;-122.288;2023-08-06T13:47:46;98765.59;;;15.42;100.00
29467;BME280;60968;37.490;-122.288;2023-08-06T13:50:47;98770.78;;;15.44;100.00
29467;BME280;60968;37.490;-122.288;2023-08-06T13:53:48;98774.16;;;15.48;100.00
29467;BME280;60968;37.490;-122.288;2023-08-06T13:56:49;98767.88;;;15.52;100.00
29467;BME280;60968;37.490;-122.288;2023-08-06T13:59:50;98766.09;;;15.52;100.00
29467;BME280;60968;37.490;-122.288;2023-08-06T14:02:51;98770.09;;;15.63;100.00
29467;BME280;60968;37.490;-122.288;2023-08-06T14:05:53;98776.81;;;15.93;100.00
29467;BME280;60968;37.490;-122.288;2023-08-06T14:08:54;98774.78;;;16.22;100.00
29467;BME280;60968;37.490;-122.288;2023-08-06T14:11:55;98777.38;;;16.44;100.00
29467;BME280;60968;37.490;-122.288;2023-08-06T14:14:56;98784.06;;;16.52;100.00
29467;BME280;60968;37.490;-122.288;2023-08-06T14:17:58;98789.00;;;16.59;100.00
29467;BME280;60968;37.490;-122.288;2023-08-06T14:20:59;98792.69;;;16.76;100.00
29467;BME280;60968;37.490;-122.288;2023-08-06T14:24:00;98792.44;;;16.82;100.00
29467;BME280;60968;37.490;-122.288;2023-08-06T14:27:01;98797.19;;;16.94;100.00
29467;BME280;60968;37.490;-122.288;2023-08-06T14:30:03;98797.72;;;17.03;100.00
29467;BME280;60968;37.490;-122.288;2023-08-06T14:33:04;98794.03;;;17.07;100.00
29467;BME280;60968;37.490;-122.288;2023-08-06T14:36:05;98803.50;;;17.11;100.00
29467;BME280;60968;37.490;-122.288;2023-08-06T14:39:06;98800.13;;;17.07;100.00
29467;BME280;60968;37.490;-122.288;2023-08-06T14:42:07;98801.16;;;17.05;100.00
29467;BME280;60968;37.490;-122.288;2023-08-06T14:45:08;98808.47;;;17.17;100.00
29467;BME280;60968;37.490;-122.288;2023-08-06T14:48:09;98806.66;;;17.19;100.00
29467;BME280;60968;37.490;-122.288;2023-08-06T14:51:10;98812.13;;;17.34;100.00
29467;BME280;60968;37.490;-122.288;2023-08-06T14:54:11;98815.88;;;17.48;100.00
29467;BME280;60968;37.490;-122.288;2023-08-06T14:57:13;98823.75;;;17.67;100.00
29467;BME280;60968;37.490;-122.288;2023-08-06T15:00:14;98813.56;;;17.79;100.00
29467;BME280;60968;37.490;-122.288;2023-08-06T15:03:15;98818.34;;;17.90;100.00
29467;BME280;60968;37.490;-122.288;2023-08-06T15:06:16;98817.25;;;17.95;100.00
29467;BME280;60968;37.490;-122.288;2023-08-06T15:09:18;98827.63;;;17.98;100.00
29467;BME280;60968;37.490;-122.288;2023-08-06T15:12:19;98833.41;;;18.07;100.00
29467;BME280;60968;37.490;-122.288;2023-08-06T15:15:20;98841.06;;;18.11;100.00
29467;BME280;60968;37.490;-122.288;2023-08-06T15:18:21;98844.63;;;18.29;100.00
29467;BME280;60968;37.490;-122.288;2023-08-06T15:21:22;98844.47;;;18.32;100.00
29467;BME280;60968;37.490;-122.288;2023-08-06T15:24:23;98851.41;;;18.52;100.00